Time;durP1;ratioP1;P1;durP2;ratioP2;P2;SDS_P1;SDS_P2;PMS_P1;PMS_P2;Temp;Humidity;BMP_temperature;BMP_pressure;BME280_temperature;BME280_humidity;BME280_pressure;Samples;Min_cycle;Max_cycle;Signal;HPM_P1;HPM_P2
2021/05/19 00:00:06;;;;;;;3.00;2.50;;;;;;;8.90;100.00;153644.66;5000798;28;20493;-76
2021/05/19 00:02:44;;;;;;;3.00;2.33;;;;;;;8.90;100.00;153645.97;5012126;28;20441;-75
2021/05/19 00:05:20;;;;;;;2.77;2.43;;;;;;;8.92;100.00;153649.88;5015344;28;20799;-75
2021/05/19 00:07:55;;;;;;;2.63;2.43;;;;;;;8.90;100.00;153644.66;5003498;28;20839;-75
2021/05/19 00:10:31;;;;;;;2.67;2.40;;;;;;;8.93;100.00;153652.44;5014875;28;20820;-75
2021/05/19 00:13:08;;;;;;;2.70;2.03;;;;;;;8.93;100.00;153653.72;4986587;28;20461;-75
2021/05/19 00:15:44;;;;;;;6.23;3.17;;;;;;;8.94;100.00;153656.34;5008624;28;20811;-75
2021/05/19 00:18:20;;;;;;;2.97;2.70;;;;;;;8.92;100.00;153649.88;5013906;28;20429;-75
2021/05/19 00:20:56;;;;;;;5.40;2.43;;;;;;;8.90;100.00;153644.66;4997126;28;20472;-76
2021/05/19 00:23:31;;;;;;;2.70;2.27;;;;;;;8.91;100.00;153648.56;5010550;28;20455;-76
2021/05/19 00:26:06;;;;;;;2.50;2.30;;;;;;;8.92;100.00;153651.13;5005493;28;20449;-75
2021/05/19 00:28:44;;;;;;;2.90;2.30;;;;;;;8.89;100.00;153642.13;5015768;28;20441;-76
2021/05/19 00:31:22;;;;;;;2.90;2.70;;;;;;;8.89;100.00;153643.41;4991153;28;20444;-75
2021/05/19 00:33:57;;;;;;;4.67;2.60;;;;;;;8.93;100.00;153653.72;4989119;28;20936;-76
2021/05/19 00:36:33;;;;;;;2.60;2.40;;;;;;;8.91;100.00;153647.28;4993971;28;20909;-75
2021/05/19 00:39:10;;;;;;;2.73;2.30;;;;;;;8.91;100.00;153647.28;4994576;28;20422;-76
2021/05/19 00:41:45;;;;;;;2.70;2.50;;;;;;;8.92;100.00;153651.13;5006806;28;20472;-75
2021/05/19 00:44:21;;;;;;;3.07;2.43;;;;;;;8.91;100.00;153647.28;5013289;28;20461;-75
2021/05/19 00:46:56;;;;;;;2.77;2.57;;;;;;;8.94;100.00;153655.03;5012032;28;20457;-75
2021/05/19 00:49:32;;;;;;;2.97;2.70;;;;;;;8.93;100.00;153653.72;5013167;28;20472;-75
2021/05/19 00:52:08;;;;;;;3.10;2.23;;;;;;;8.95;100.00;153657.59;5002637;28;20935;-76
2021/05/19 00:54:43;;;;;;;2.50;2.23;;;;;;;8.94;100.00;153655.03;4981710;28;20804;-75
2021/05/19 00:57:19;;;;;;;2.73;2.53;;;;;;;8.98;100.00;153665.34;4995834;28;20457;-76
2021/05/19 00:59:54;;;;;;;3.20;2.20;;;;;;;8.95;100.00;153657.59;4981659;28;20929;-75
2021/05/19 01:02:36;;;;;;;3.80;3.10;;;;;;;8.98;100.00;153665.34;4997203;28;20457;-75
2021/05/19 01:05:17;;;;;;;2.80;2.40;;;;;;;8.98;100.00;153665.34;4996461;28;20453;-75
2021/05/19 01:11:05;;;;;;;4.03;3.07;;;;;;;8.96;100.00;153660.19;5001836;28;20790;-75
2021/05/19 01:13:42;;;;;;;2.73;2.53;;;;;;;8.94;100.00;153655.03;5005618;28;20963;-75
2021/05/19 01:16:17;;;;;;;2.83;2.57;;;;;;;8.94;100.00;153655.03;5010558;28;20441;-75
2021/05/19 01:18:52;;;;;;;3.23;2.93;;;;;;;8.93;100.00;153652.44;5012390;28;20476;-75
2021/05/19 01:21:28;;;;;;;3.23;2.70;;;;;;;8.91;100.00;153647.28;5015509;28;20862;-75
2021/05/19 01:24:05;;;;;;;3.60;3.30;;;;;;;8.92;100.00;153649.88;5012588;28;20504;-75
2021/05/19 01:26:41;;;;;;;2.90;2.60;;;;;;;8.89;100.00;153643.41;5011966;28;20453;-75
2021/05/19 01:29:16;;;;;;;2.90;2.70;;;;;;;8.91;100.00;153648.56;5000693;28;20531;-75
2021/05/19 01:31:51;;;;;;;3.77;3.00;;;;;;;8.92;100.00;153649.88;4995814;28;20457;-75
2021/05/19 01:34:26;;;;;;;3.20;2.90;;;;;;;8.93;100.00;153652.44;4992634;28;20450;-75
2021/05/19 01:37:01;;;;;;;3.03;2.73;;;;;;;8.93;100.00;153652.44;4976979;28;20952;-75
2021/05/19 01:39:39;;;;;;;3.10;2.80;;;;;;;8.91;100.00;153647.28;4997124;28;20453;-75
2021/05/19 01:42:14;;;;;;;2.93;2.50;;;;;;;8.93;100.00;153652.44;4992901;28;20857;-75
2021/05/19 01:44:53;;;;;;;3.47;2.73;;;;;;;8.92;100.00;153651.13;4980894;28;20453;-75
2021/05/19 01:47:53;;;;;;;3.73;3.43;;;;;;;8.94;100.00;153656.34;5013898;28;20449;-75
2021/05/19 01:50:32;;;;;;;3.20;2.90;;;;;;;8.94;100.00;153656.34;5011818;28;20441;-75
2021/05/19 01:53:08;;;;;;;3.17;2.83;;;;;;;8.92;100.00;153649.88;5013137;28;20451;-75
2021/05/19 01:55:44;;;;;;;3.30;3.00;;;;;;;8.89;100.00;153642.13;5013585;28;20413;-75
2021/05/19 01:58:22;;;;;;;4.00;2.90;;;;;;;8.88;100.00;153640.81;4975722;28;20490;-75
2021/05/19 02:00:58;;;;;;;3.47;2.97;;;;;;;8.89;100.00;153642.13;4978421;28;20500;-75
2021/05/19 02:03:39;;;;;;;3.47;3.17;;;;;;;8.88;100.00;153640.81;5010932;28;20457;-75
2021/05/19 02:06:18;;;;;;;3.10;2.80;;;;;;;8.87;100.00;153636.94;4979561;28;20520;-76
2021/05/19 02:08:57;;;;;;;4.03;2.67;;;;;;;8.85;100.00;153633.03;5012265;28;20441;-75
2021/05/19 02:11:33;;;;;;;3.20;2.90;;;;;;;8.84;100.00;153630.44;4980639;28;20839;-75
2021/05/19 02:14:09;;;;;;;3.73;3.30;;;;;;;8.86;100.00;153634.34;4995591;28;20457;-75
2021/05/19 02:16:45;;;;;;;3.43;2.90;;;;;;;8.85;100.00;153633.03;4996697;28;20869;-75
2021/05/19 02:19:20;;;;;;;3.30;3.00;;;;;;;8.84;100.00;153629.19;4978475;28;20451;-75
2021/05/19 02:22:00;;;;;;;3.97;3.30;;;;;;;8.83;100.00;153626.59;4992666;28;20436;-75
2021/05/19 02:24:42;;;;;;;2.90;2.60;;;;;;;8.81;100.00;153621.41;4995419;28;20446;-75
2021/05/19 02:27:19;;;;;;;5.13;3.23;;;;;;;8.79;100.00;153616.25;4995318;28;20466;-75
2021/05/19 02:29:54;;;;;;;3.23;2.93;;;;;;;8.77;100.00;153612.34;4995467;28;20449;-75
2021/05/19 02:32:30;;;;;;;7.10;3.23;;;;;;;8.75;100.00;153605.91;5012495;28;20527;-75
2021/05/19 02:35:09;;;;;;;3.47;3.17;;;;;;;8.76;100.00;153609.81;4983462;28;20445;-75
2021/05/19 02:37:45;;;;;;;3.40;3.10;;;;;;;8.76;100.00;153608.50;5012136;28;20885;-75
2021/05/19 02:40:21;;;;;;;3.30;2.63;;;;;;;8.77;100.00;153612.34;5011551;28;20473;-75
2021/05/19 02:42:57;;;;;;;3.40;3.10;;;;;;;8.75;100.00;153605.91;4980447;28;20493;-75
2021/05/19 02:45:36;;;;;;;4.73;2.67;;;;;;;8.72;100.00;153599.44;4996888;28;20449;-75
2021/05/19 02:48:11;;;;;;;3.00;2.70;;;;;;;8.73;100.00;153600.72;5013116;28;20419;-75
2021/05/19 02:50:46;;;;;;;5.13;3.40;;;;;;;8.72;100.00;153598.13;4992242;28;20442;-75
2021/05/19 02:53:21;;;;;;;3.20;2.90;;;;;;;8.67;100.00;153585.22;4993748;28;20446;-75
2021/05/19 02:55:56;;;;;;;3.83;3.30;;;;;;;8.67;100.00;153585.22;4994058;28;20818;-75
2021/05/19 02:58:33;;;;;;;3.50;3.20;;;;;;;8.68;100.00;153587.81;4994955;28;20444;-75
2021/05/19 03:01:07;;;;;;;5.13;3.00;;;;;;;8.66;100.00;153582.66;4995299;28;20579;-75
2021/05/19 03:03:43;;;;;;;3.67;3.37;;;;;;;8.65;100.00;153581.34;4998055;28;20448;-75
2021/05/19 03:06:18;;;;;;;3.00;2.70;;;;;;;8.64;100.00;153577.44;4994293;28;20838;-75
2021/05/19 03:08:53;;;;;;;4.07;3.47;;;;;;;8.65;100.00;153580.03;4964751;28;20431;-75
2021/05/19 03:11:28;;;;;;;5.50;3.20;;;;;;;8.64;100.00;153578.75;4980581;28;20487;-76
2021/05/19 03:14:05;;;;;;;7.70;3.00;;;;;;;8.63;100.00;153574.88;4981084;28;20449;-75
2021/05/19 03:16:40;;;;;;;3.37;3.07;;;;;;;8.63;100.00;153576.13;4980051;28;20457;-75
2021/05/19 03:19:15;;;;;;;4.30;3.60;;;;;;;8.65;100.00;153581.34;4979304;28;20838;-75
2021/05/19 03:21:50;;;;;;;3.50;3.00;;;;;;;8.61;100.00;153569.69;4981963;28;20477;-76
2021/05/19 03:24:25;;;;;;;4.60;3.17;;;;;;;8.61;100.00;153569.69;4996480;28;20908;-75
2021/05/19 03:27:00;;;;;;;3.80;3.10;;;;;;;8.57;100.00;153560.66;4995180;28;20454;-75
2021/05/19 03:29:37;;;;;;;3.10;2.80;;;;;;;8.56;100.00;153558.06;4994935;28;20446;-75
2021/05/19 03:32:12;;;;;;;3.50;3.10;;;;;;;8.54;100.00;153554.19;4984428;28;20493;-75
2021/05/19 03:34:47;;;;;;;3.00;2.80;;;;;;;8.54;100.00;153552.91;4978433;28;20447;-75
2021/05/19 03:37:23;;;;;;;3.57;3.27;;;;;;;8.55;100.00;153556.75;4995044;28;20905;-75
2021/05/19 03:40:00;;;;;;;3.13;2.83;;;;;;;8.53;100.00;153551.59;4989567;28;20801;-75
2021/05/19 03:42:35;;;;;;;4.13;2.83;;;;;;;8.54;100.00;153554.19;4996566;28;20533;-75
2021/05/19 03:45:14;;;;;;;3.53;3.10;;;;;;;8.53;100.00;153551.59;4994722;28;20450;-75
2021/05/19 03:47:51;;;;;;;5.33;2.97;;;;;;;8.56;100.00;153559.38;4995957;28;20442;-75
2021/05/19 03:50:28;;;;;;;3.50;2.83;;;;;;;8.54;100.00;153552.91;4983167;28;20434;-75
2021/05/19 03:53:04;;;;;;;3.97;3.20;;;;;;;8.54;100.00;153554.19;4977170;28;20436;-75
2021/05/19 03:55:41;;;;;;;3.77;3.10;;;;;;;8.53;100.00;153551.59;4976206;28;20541;-75
2021/05/19 03:58:15;;;;;;;4.20;3.40;;;;;;;8.52;100.00;153549.00;4995361;28;20439;-75
2021/05/19 04:00:51;;;;;;;2.93;2.63;;;;;;;8.53;100.00;153551.59;4977708;28;20807;-75
2021/05/19 04:03:26;;;;;;;3.23;3.03;;;;;;;8.52;100.00;153549.00;4992359;28;20541;-76
2021/05/19 04:06:02;;;;;;;3.27;2.93;;;;;;;8.51;100.00;153546.44;4981987;28;20449;-75
2021/05/19 04:08:38;;;;;;;3.50;3.20;;;;;;;8.49;100.00;153541.28;5007669;28;20523;-75
2021/05/19 04:11:13;;;;;;;2.90;2.60;;;;;;;8.48;100.00;153537.38;4995543;28;20533;-75
2021/05/19 04:13:48;;;;;;;3.33;3.03;;;;;;;8.50;100.00;153543.84;4994797;28;20430;-75
2021/05/19 04:16:24;;;;;;;3.03;2.50;;;;;;;8.50;100.00;153543.84;4994193;28;20455;-75
2021/05/19 04:18:59;;;;;;;3.80;2.93;;;;;;;8.48;100.00;153538.69;4994182;28;20438;-75
2021/05/19 04:21:35;;;;;;;3.33;3.03;;;;;;;8.45;100.00;153530.91;5002294;28;20477;-75
2021/05/19 04:24:10;;;;;;;3.47;3.17;;;;;;;8.46;100.00;153533.53;4997651;28;20437;-75
2021/05/19 04:26:45;;;;;;;3.83;3.43;;;;;;;8.49;100.00;153541.28;4997003;28;20461;-75
2021/05/19 04:29:20;;;;;;;3.50;3.20;;;;;;;8.50;100.00;153543.84;4996604;28;20453;-75
2021/05/19 04:31:56;;;;;;;3.83;3.27;;;;;;;8.48;100.00;153538.69;5013913;28;20433;-75
2021/05/19 04:34:31;;;;;;;3.93;3.00;;;;;;;8.47;100.00;153536.06;4998478;28;20448;-75
2021/05/19 04:37:07;;;;;;;4.20;3.80;;;;;;;8.50;100.00;153543.84;5014735;28;20458;-75
2021/05/19 04:39:43;;;;;;;3.83;3.50;;;;;;;8.52;100.00;153547.75;5013108;28;20943;-75
2021/05/19 04:42:18;;;;;;;3.50;3.20;;;;;;;8.54;100.00;153552.91;5010002;28;20476;-75
2021/05/19 04:44:53;;;;;;;3.10;2.80;;;;;;;8.53;100.00;153551.59;5013318;28;20877;-75
2021/05/19 04:47:29;;;;;;;3.50;3.20;;;;;;;8.54;100.00;153552.91;5013019;28;20456;-75
2021/05/19 04:50:05;;;;;;;3.23;2.93;;;;;;;8.53;100.00;153551.59;5013313;28;20445;-75
2021/05/19 04:52:41;;;;;;;4.57;3.50;;;;;;;8.51;100.00;153546.44;5013091;28;20460;-75
2021/05/19 04:55:16;;;;;;;3.47;3.17;;;;;;;8.55;100.00;153556.75;5013091;28;20532;-75
2021/05/19 04:57:51;;;;;;;3.70;3.40;;;;;;;8.55;100.00;153556.75;5012288;28;20448;-76
2021/05/19 05:00:26;;;;;;;3.73;3.40;;;;;;;8.58;100.00;153563.22;4996622;28;20476;-76
2021/05/19 05:03:03;;;;;;;4.03;3.73;;;;;;;8.57;100.00;153561.97;4984081;28;20532;-76
2021/05/19 05:05:38;;;;;;;4.07;3.77;;;;;;;8.57;100.00;153561.97;4999292;28;20426;-75
2021/05/19 05:08:13;;;;;;;4.47;3.67;;;;;;;8.60;100.00;153567.13;5012818;28;20837;-76
2021/05/19 05:10:49;;;;;;;4.10;3.80;;;;;;;8.60;100.00;153567.13;5012504;28;20806;-75
2021/05/19 05:13:23;;;;;;;3.97;3.57;;;;;;;8.61;100.00;153569.69;5007074;28;20454;-76
2021/05/19 05:15:58;;;;;;;4.17;3.77;;;;;;;8.63;100.00;153576.13;5010511;28;20919;-76
2021/05/19 05:18:35;;;;;;;4.53;3.83;;;;;;;8.67;100.00;153585.22;4996126;28;20446;-75
2021/05/19 05:21:11;;;;;;;4.20;3.80;;;;;;;8.69;100.00;153590.38;4970767;28;20496;-76
2021/05/19 05:23:46;;;;;;;5.07;4.67;;;;;;;8.68;100.00;153589.13;4981776;28;20446;-75
2021/05/19 05:26:21;;;;;;;4.77;4.00;;;;;;;8.71;100.00;153595.56;5009997;28;20460;-76
2021/05/19 05:28:56;;;;;;;5.00;4.23;;;;;;;8.76;100.00;153608.50;4997163;28;20534;-76
2021/05/19 05:31:32;;;;;;;5.17;4.67;;;;;;;8.80;100.00;153618.81;5007591;28;20441;-76
2021/05/19 05:34:08;;;;;;;3.90;3.50;;;;;;;8.88;100.00;153639.50;5012134;28;20444;-75
2021/05/19 05:36:43;;;;;;;4.77;3.90;;;;;;;8.85;100.00;153633.03;4995349;28;20813;-75
2021/05/19 05:39:19;;;;;;;4.10;3.70;;;;;;;8.79;100.00;153616.25;5011643;28;20433;-75
2021/05/19 05:41:54;;;;;;;5.30;4.17;;;;;;;8.79;100.00;153616.25;4995134;28;20473;-75
2021/05/19 05:44:29;;;;;;;4.40;4.00;;;;;;;8.88;100.00;153639.50;4996431;28;20429;-75
2021/05/19 05:47:04;;;;;;;4.30;3.90;;;;;;;8.89;100.00;153642.13;5009363;28;20448;-75
2021/05/19 05:49:40;;;;;;;6.67;5.10;;;;;;;9.03;100.00;153679.59;5010240;28;20437;-75
2021/05/19 05:52:15;;;;;;;5.87;5.37;;;;;;;9.18;100.00;153718.41;4993532;28;20449;-76
2021/05/19 05:54:50;;;;;;;5.23;4.73;;;;;;;9.20;100.00;153722.28;5012781;28;20871;-75
2021/05/19 05:57:26;;;;;;;5.53;4.70;;;;;;;9.36;100.00;153763.66;5027976;28;20483;-75
2021/05/19 06:00:01;;;;;;;5.70;5.10;;;;;;;9.58;100.00;153820.56;4994296;28;20443;-76
2021/05/19 06:02:36;;;;;;;5.77;4.90;;;;;;;9.85;100.00;153889.16;5011408;28;20444;-75
2021/05/19 06:05:13;;;;;;;5.60;4.60;;;;;;;10.00;100.00;153926.69;4995600;28;20530;-75
2021/05/19 06:07:48;;;;;;;6.37;5.77;;;;;;;10.14;100.00;153964.25;5008518;28;20867;-75
2021/05/19 06:10:23;;;;;;;7.30;5.40;;;;;;;10.25;100.00;153991.44;4993234;28;20910;-75
2021/05/19 06:12:58;;;;;;;6.17;5.33;;;;;;;10.24;100.00;153990.19;4992624;28;20466;-75
2021/05/19 06:15:34;;;;;;;6.83;5.03;;;;;;;10.33;100.00;154012.16;5011384;28;20444;-75
2021/05/19 06:18:09;;;;;;;5.40;4.90;;;;;;;10.34;100.00;154014.75;4993219;28;20483;-75
2021/05/19 06:20:45;;;;;;;5.20;4.70;;;;;;;10.31;100.00;154007.00;5009636;28;20477;-76
2021/05/19 06:23:20;;;;;;;4.60;4.20;;;;;;;10.30;100.00;154004.38;4993907;28;20456;-75
2021/05/19 06:25:55;;;;;;;5.83;5.33;;;;;;;10.33;100.00;154012.16;4997920;28;20456;-77
2021/05/19 06:28:30;;;;;;;5.70;4.80;;;;;;;10.31;100.00;154007.00;5011813;28;20982;-77
2021/05/19 06:31:05;;;;;;;8.00;5.40;;;;;;;10.45;100.00;154043.25;4995818;28;20454;-76
2021/05/19 06:33:40;;;;;;;5.03;4.53;;;;;;;10.56;100.00;154070.44;5011893;28;20452;-77
2021/05/19 06:36:16;;;;;;;6.43;4.90;;;;;;;10.62;100.00;154087.25;4980783;28;20994;-77
2021/05/19 06:38:51;;;;;;;5.23;4.57;;;;;;;10.76;100.00;154123.53;5005166;28;20456;-77
2021/05/19 06:41:26;;;;;;;6.20;5.40;;;;;;;10.76;100.00;154123.53;4999672;28;20508;-77
2021/05/19 06:44:02;;;;;;;7.13;5.50;;;;;;;10.98;99.52;154180.53;5011542;28;20480;-76
2021/05/19 06:46:37;;;;;;;6.37;5.77;;;;;;;11.16;97.01;154225.84;5015661;28;20442;-74
2021/05/19 06:49:12;;;;;;;5.20;4.63;;;;;;;11.37;96.24;154278.94;5016774;28;20463;-75
2021/05/19 06:51:48;;;;;;;4.57;4.13;;;;;;;11.60;96.75;154338.53;5014806;28;20448;-76
2021/05/19 06:54:23;;;;;;;5.30;4.80;;;;;;;11.95;97.46;154429.31;5014901;28;20969;-75
2021/05/19 06:56:59;;;;;;;5.30;4.80;;;;;;;12.44;96.87;154553.78;5009902;28;20446;-76
2021/05/19 06:59:34;;;;;;;6.30;4.90;;;;;;;13.03;96.07;154706.81;4998267;28;20456;-75
2021/05/19 07:02:09;;;;;;;6.20;4.60;;;;;;;13.14;93.30;154735.41;4998654;28;20463;-75
2021/05/19 07:04:44;;;;;;;4.93;4.13;;;;;;;13.12;90.20;154730.22;4998420;28;20445;-75
2021/05/19 07:07:21;;;;;;;4.90;4.50;;;;;;;12.81;91.07;154649.75;5015703;28;20477;-75
2021/05/19 07:09:55;;;;;;;4.50;4.10;;;;;;;12.76;89.16;154636.81;4997420;28;20558;-75
2021/05/19 07:12:31;;;;;;;4.10;3.70;;;;;;;13.08;89.18;154718.56;4998202;28;20457;-75
2021/05/19 07:15:11;;;;;;;4.33;3.93;;;;;;;13.34;88.52;154786.03;4998409;28;20562;-74
2021/05/19 07:17:46;;;;;;;6.17;3.80;;;;;;;13.34;87.38;154787.28;5010492;28;20451;-75
2021/05/19 07:20:22;;;;;;;3.93;3.53;;;;;;;13.22;85.65;154756.19;4995199;28;20455;-74
2021/05/19 07:22:58;;;;;;;5.10;4.60;;;;;;;13.20;85.10;154751.00;4999564;28;20460;-75
2021/05/19 07:25:33;;;;;;;5.07;3.73;;;;;;;13.24;85.67;154761.34;4988854;28;20474;-75
2021/05/19 07:28:09;;;;;;;4.00;3.37;;;;;;;13.06;81.93;154714.59;5014729;28;20449;-74
2021/05/19 07:30:47;;;;;;;4.27;3.87;;;;;;;13.15;83.13;154738.03;4996950;28;20446;-75
2021/05/19 07:33:22;;;;;;;4.60;4.00;;;;;;;13.39;78.27;154800.31;5009657;28;20451;-75
2021/05/19 07:35:57;;;;;;;3.70;3.40;;;;;;;14.06;85.40;154970.34;5017649;28;20450;-75
2021/05/19 07:38:33;;;;;;;3.30;3.00;;;;;;;13.88;75.49;154924.88;5010885;28;20439;-75
2021/05/19 07:41:08;;;;;;;3.80;3.50;;;;;;;13.99;80.20;154953.44;5001806;28;20464;-77
2021/05/19 07:43:44;;;;;;;7.03;4.00;;;;;;;13.69;85.60;154875.53;4995115;28;20456;-76
2021/05/19 07:46:19;;;;;;;3.70;3.10;;;;;;;13.20;84.42;154751.00;5011275;28;20447;-76
2021/05/19 07:48:54;;;;;;;3.90;3.47;;;;;;;13.06;88.03;154714.59;4999330;28;20460;-77
2021/05/19 07:51:29;;;;;;;6.40;3.30;;;;;;;12.74;82.83;154632.88;5002686;28;20447;-77
2021/05/19 07:54:06;;;;;;;3.80;3.40;;;;;;;12.59;85.16;154594.00;5017252;28;20509;-76
2021/05/19 07:56:49;;;;;;;4.13;3.50;;;;;;;12.42;90.73;154549.88;4978627;28;20432;-76
2021/05/19 07:59:27;;;;;;;3.80;3.50;;;;;;;12.25;89.89;154504.50;5013590;28;20488;-77
2021/05/19 08:02:03;;;;;;;4.87;3.47;;;;;;;12.03;89.97;154450.06;5014234;28;20841;-78
2021/05/19 08:04:38;;;;;;;3.67;3.20;;;;;;;11.88;90.02;154411.19;5008321;28;20794;-78
2021/05/19 08:07:13;;;;;;;4.10;3.70;;;;;;;11.87;89.64;154408.56;5001300;28;20470;-78
2021/05/19 08:09:49;;;;;;;3.30;3.00;;;;;;;11.96;92.54;154431.94;5001336;28;20492;-78
2021/05/19 08:12:25;;;;;;;4.27;3.87;;;;;;;11.99;93.62;154438.41;5008146;28;20452;-78
2021/05/19 08:15:00;;;;;;;4.43;4.00;;;;;;;11.98;91.59;154437.09;5006057;28;20454;-78
2021/05/19 08:17:35;;;;;;;4.00;3.60;;;;;;;11.98;89.79;154437.09;5002970;28;20452;-78
2021/05/19 08:20:12;;;;;;;3.90;3.60;;;;;;;11.96;93.18;154430.63;4987536;28;20861;-78
2021/05/19 08:22:47;;;;;;;6.63;4.40;;;;;;;12.01;91.73;154444.91;5006294;28;20949;-77
2021/05/19 08:25:23;;;;;;;3.80;3.50;;;;;;;12.01;90.79;154444.91;4986742;28;20535;-77
2021/05/19 08:27:58;;;;;;;4.20;3.50;;;;;;;12.15;91.78;154481.16;4999957;28;20440;-77
2021/05/19 08:30:33;;;;;;;4.73;3.83;;;;;;;12.23;91.79;154501.91;5014556;28;20420;-77
2021/05/19 08:33:08;;;;;;;3.23;2.93;;;;;;;12.30;88.97;154517.47;5013934;28;21102;-77
2021/05/19 08:35:43;;;;;;;4.10;3.70;;;;;;;12.43;89.37;154551.19;5013864;28;20444;-77
2021/05/19 08:38:19;;;;;;;4.50;3.57;;;;;;;12.42;86.54;154548.56;5016549;28;20460;-77
2021/05/19 08:40:55;;;;;;;3.80;3.50;;;;;;;12.60;84.89;154595.28;5016857;28;20479;-77
2021/05/19 08:43:30;;;;;;;4.13;3.70;;;;;;;12.71;86.72;154623.78;5020427;28;20460;-77
2021/05/19 08:46:05;;;;;;;3.97;3.57;;;;;;;12.77;84.60;154639.38;4994279;28;20455;-77
2021/05/19 08:48:42;;;;;;;4.93;4.00;;;;;;;12.73;87.09;154629.00;5013320;28;21019;-77
2021/05/19 08:51:17;;;;;;;3.80;3.40;;;;;;;12.80;86.04;154647.16;4991720;28;20441;-77
2021/05/19 08:53:52;;;;;;;4.07;3.40;;;;;;;12.82;84.16;154652.31;5003096;28;20453;-77
2021/05/19 08:56:29;;;;;;;2.87;2.63;;;;;;;12.87;83.36;154665.28;4986218;28;20443;-78
2021/05/19 08:59:04;;;;;;;3.60;3.30;;;;;;;13.14;83.58;154734.09;4999646;28;20453;-77
2021/05/19 09:01:40;;;;;;;5.43;4.20;;;;;;;13.26;84.31;154766.53;5002851;28;20465;-74
2021/05/19 09:04:19;;;;;;;4.07;3.67;;;;;;;13.30;87.40;154776.94;5003926;28;20450;-77
2021/05/19 09:06:54;;;;;;;2.93;2.63;;;;;;;13.15;76.22;154738.03;5003248;28;20482;-76
2021/05/19 09:09:30;;;;;;;2.90;2.60;;;;;;;13.27;82.02;154769.13;5013599;28;20457;-77
2021/05/19 09:12:09;;;;;;;3.03;2.73;;;;;;;13.60;80.70;154852.22;4988171;28;20450;-77
2021/05/19 09:15:00;;;;;;;3.13;2.50;;;;;;;13.78;78.03;154898.91;5010293;28;20459;-74
2021/05/19 09:17:38;;;;;;;2.60;2.03;;;;;;;13.79;76.06;154901.53;4990868;28;20548;-77
2021/05/19 09:20:16;;;;;;;3.33;2.80;;;;;;;14.20;78.93;155006.66;5002400;28;20441;-77
2021/05/19 09:23:02;;;;;;;4.30;2.20;;;;;;;14.32;70.66;155039.16;5002109;28;20430;-75
2021/05/19 09:25:37;;;;;;;2.73;2.43;;;;;;;14.44;73.72;155070.38;4991440;28;20420;-75
2021/05/19 09:28:24;;;;;;;2.50;2.30;;;;;;;14.63;76.78;155119.72;4983080;28;20457;-75
2021/05/19 09:30:59;;;;;;;2.90;2.60;;;;;;;14.93;71.84;155196.34;4965269;28;20833;-75
2021/05/19 09:33:34;;;;;;;1.90;1.70;;;;;;;15.27;69.40;155283.44;5010164;28;20475;-75
2021/05/19 09:36:12;;;;;;;1.70;1.60;;;;;;;15.41;68.06;155319.78;5012088;28;20532;-75
2021/05/19 09:38:49;;;;;;;2.07;1.80;;;;;;;15.49;62.01;155340.63;5013281;28;20453;-75
2021/05/19 09:41:28;;;;;;;1.80;1.50;;;;;;;15.66;62.24;155384.84;4995238;28;20465;-76
2021/05/19 09:44:06;;;;;;;1.80;1.63;;;;;;;16.06;61.85;155486.25;5020361;28;20536;-75
2021/05/19 09:46:48;;;;;;;2.90;1.30;;;;;;;16.22;61.09;155527.84;5013191;28;20475;-76
2021/05/19 09:49:23;;;;;;;4.07;1.57;;;;;;;16.31;60.68;155552.56;5011739;28;20448;-75
2021/05/19 09:52:09;;;;;;;2.50;1.47;;;;;;;16.48;61.74;155594.16;4995435;28;20429;-77
2021/05/19 09:54:45;;;;;;;3.13;1.60;;;;;;;16.60;62.13;155626.72;4977633;28;20547;-76
2021/05/19 09:57:23;;;;;;;1.70;1.50;;;;;;;16.41;57.86;155577.28;5005403;28;20987;-76
2021/05/19 10:00:00;;;;;;;2.50;1.60;;;;;;;16.70;57.78;155652.78;5010232;28;20445;-76
2021/05/19 10:02:35;;;;;;;2.47;1.80;;;;;;;17.00;59.83;155729.50;4994400;28;20472;-76
2021/05/19 10:05:14;;;;;;;4.50;1.57;;;;;;;16.88;55.65;155698.31;4994398;28;20544;-76
2021/05/19 10:07:49;;;;;;;1.23;1.10;;;;;;;16.96;50.86;155719.13;4994840;28;20468;-75
2021/05/19 10:10:25;;;;;;;1.63;1.53;;;;;;;16.74;51.76;155663.16;5007959;28;20434;-75
2021/05/19 10:13:00;;;;;;;2.53;2.10;;;;;;;15.89;56.05;155442.00;4978346;28;20457;-75
2021/05/19 10:15:37;;;;;;;2.30;2.10;;;;;;;15.66;63.21;155384.84;5032641;28;20436;-75
2021/05/19 10:18:16;;;;;;;2.00;1.90;;;;;;;15.96;58.12;155460.25;4999433;28;20456;-77
2021/05/19 10:20:55;;;;;;;2.00;1.17;;;;;;;15.82;60.99;155426.44;4996289;28;20465;-77
2021/05/19 10:23:36;;;;;;;2.30;1.30;;;;;;;15.58;52.65;155364.03;5014956;28;20451;-77
2021/05/19 10:26:12;;;;;;;1.43;1.03;;;;;;;15.42;54.24;155322.41;5014676;28;21027;-77
2021/05/19 10:28:48;;;;;;;3.17;1.30;;;;;;;15.49;54.99;155340.63;5017291;28;20455;-77
2021/05/19 10:31:29;;;;;;;2.80;1.10;;;;;;;15.55;55.89;155354.94;4994222;28;20540;-75
2021/05/19 10:34:04;;;;;;;1.60;1.23;;;;;;;15.61;51.47;155371.84;5009287;28;20447;-77
2021/05/19 10:36:41;;;;;;;1.23;1.00;;;;;;;15.70;52.54;155395.22;5016113;28;20552;-77
2021/05/19 10:39:26;;;;;;;1.07;0.70;;;;;;;16.01;60.27;155473.25;4999139;28;20496;-77
2021/05/19 10:42:01;;;;;;;1.73;0.80;;;;;;;16.08;57.14;155492.75;5014482;28;20467;-77
2021/05/19 10:44:36;;;;;;;1.63;1.10;;;;;;;15.60;51.74;155369.22;4994725;28;20775;-77
2021/05/19 10:47:25;;;;;;;1.50;1.30;;;;;;;15.68;55.60;155390.03;4996804;28;20915;-77
2021/05/19 10:50:14;;;;;;;1.20;1.00;;;;;;;15.42;57.17;155322.41;5010884;28;20921;-75
2021/05/19 10:59:00;;;;;;;1.23;1.13;;;;;;;15.51;51.81;155345.88;5007499;28;20453;-75
2021/05/19 11:01:56;;;;;;;1.83;1.03;;;;;;;15.29;49.21;155287.31;5004521;28;20479;-75
2021/05/19 11:04:33;;;;;;;1.10;0.90;;;;;;;15.32;52.19;155295.09;5001800;28;20548;-75
2021/05/19 11:07:09;;;;;;;2.03;1.20;;;;;;;15.04;49.91;155224.94;4995541;28;20469;-75
2021/05/19 11:09:45;;;;;;;2.60;1.10;;;;;;;14.91;56.40;155189.84;5008849;28;20479;-75
2021/05/19 11:12:45;;;;;;;1.37;1.00;;;;;;;15.06;52.66;155228.84;5002874;28;20452;-75
2021/05/19 11:15:47;;;;;;;2.67;1.30;;;;;;;14.81;49.40;155163.88;5013722;28;20535;-75
2021/05/19 11:18:31;;;;;;;2.97;1.10;;;;;;;14.96;51.76;155204.13;5003256;28;20827;-75
2021/05/19 11:21:14;;;;;;;1.80;1.10;;;;;;;15.07;50.53;155232.72;5000998;28;20476;-75
2021/05/19 11:24:11;;;;;;;1.50;0.90;;;;;;;15.35;57.53;155304.22;5014795;28;20475;-75
2021/05/19 11:26:47;;;;;;;1.40;1.20;;;;;;;15.49;58.05;155340.63;4998978;28;20444;-75
2021/05/19 11:29:22;;;;;;;2.23;1.10;;;;;;;15.13;51.06;155248.34;5010214;28;20932;-76
2021/05/19 11:32:03;;;;;;;2.00;1.00;;;;;;;15.05;52.71;155226.22;5001691;28;20436;-75
2021/05/19 11:34:38;;;;;;;1.90;1.27;;;;;;;14.92;49.59;155192.47;4985516;28;20943;-75
2021/05/19 11:37:16;;;;;;;1.87;1.10;;;;;;;14.63;46.82;155118.41;4998585;28;20860;-75
2021/05/19 11:39:53;;;;;;;1.70;1.03;;;;;;;14.70;47.35;155135.28;4989955;28;20551;-75
2021/05/19 11:42:29;;;;;;;1.40;0.90;;;;;;;14.92;48.44;155192.47;5006380;28;20970;-75
2021/05/19 11:45:06;;;;;;;1.47;1.20;;;;;;;15.25;49.52;155279.50;4997430;28;20436;-76
2021/05/19 11:47:41;;;;;;;0.97;0.80;;;;;;;15.48;46.30;155336.75;4988521;28;20477;-75
2021/05/19 11:50:18;;;;;;;1.20;0.90;;;;;;;15.58;50.17;155362.75;5010905;28;20447;-76
2021/05/19 11:52:57;;;;;;;1.53;1.20;;;;;;;15.68;49.73;155390.03;5009355;28;20452;-75
2021/05/19 11:55:35;;;;;;;1.57;1.07;;;;;;;15.76;51.94;155410.84;5010358;28;20941;-75
2021/05/19 11:58:16;;;;;;;1.97;0.90;;;;;;;15.70;49.47;155393.97;5009778;28;20542;-75
2021/05/19 12:00:55;;;;;;;1.30;0.83;;;;;;;15.77;48.75;155413.47;4997342;28;20476;-75
2021/05/19 12:03:31;;;;;;;1.43;0.90;;;;;;;15.81;51.69;155423.81;5009670;28;20465;-76
2021/05/19 12:06:07;;;;;;;4.10;0.90;;;;;;;15.82;45.63;155426.44;5006855;28;20971;-75
2021/05/19 12:08:45;;;;;;;3.23;1.90;;;;;;;15.65;45.90;155380.91;5006427;28;20555;-75
2021/05/19 12:11:23;;;;;;;2.23;1.27;;;;;;;15.47;53.02;155334.13;4982883;28;20441;-75
2021/05/19 12:14:01;;;;;;;3.33;1.73;;;;;;;15.48;57.96;155338.06;5013498;28;20477;-76
2021/05/19 12:16:38;;;;;;;1.83;1.23;;;;;;;15.41;48.07;155318.53;4981937;28;20440;-76